GTW420 KORL-KMIA
Flight info
| Callsign | GTW420 |
|---|---|
| Flight time | N/A |
| Altitude | 27000 |
| Route | NYTES2 NYTES DDANY CSTAL2 |
| Aircraft | HDJT/L-SABDGRWY/H |
Departure
| Time | 2026-05-05 01:44 |
|---|---|
| Airport | Orlando Executive Airport (KORL) |
Arrival
| Time | N/A |
|---|---|
| Airport | Miami International Airport (KMIA) |
| Time | Latitude | Longitude | Altitude | Speed | Heading |
|---|---|---|---|---|---|
| 2026-05-05 01:10 | 28.54832 | -81.33863 | 112 ft | 0 kts | 41° |
| 2026-05-05 01:27 | 28.54838 | -81.33875 | 109 ft | 7 kts | 227° |
| 2026-05-05 01:27 | 28.54776 | -81.33852 | 110 ft | 11 kts | 131° |
| 2026-05-05 01:27 | 28.54729 | -81.33790 | 109 ft | 9 kts | 129° |
| 2026-05-05 01:28 | 28.54692 | -81.33738 | 110 ft | 9 kts | 133° |
| 2026-05-05 01:28 | 28.54639 | -81.33679 | 110 ft | 10 kts | 161° |
| 2026-05-05 01:28 | 28.54580 | -81.33720 | 108 ft | 11 kts | 220° |
| 2026-05-05 01:28 | 28.54524 | -81.33774 | 107 ft | 13 kts | 221° |
| 2026-05-05 01:29 | 28.54453 | -81.33843 | 107 ft | 14 kts | 219° |
| 2026-05-05 01:29 | 28.54381 | -81.33908 | 106 ft | 12 kts | 219° |
| 2026-05-05 01:29 | 28.54372 | -81.33917 | 106 ft | 0 kts | 219° |
| 2026-05-05 01:43 | 28.54327 | -81.33923 | 105 ft | 13 kts | 160° |
| 2026-05-05 01:43 | 28.54331 | -81.33802 | 105 ft | 33 kts | 66° |
| 2026-05-05 01:44 | 28.54522 | -81.33300 | 113 ft | 104 kts | 66° |
| 2026-05-05 01:44 | 28.54870 | -81.32374 | 324 ft | 143 kts | 67° |
| 2026-05-05 01:44 | 28.55341 | -81.31272 | 782 ft | 159 kts | 63° |
| 2026-05-05 01:44 | 28.55977 | -81.30277 | 1571 ft | 159 kts | 53° |
| 2026-05-05 01:45 | 28.56754 | -81.29207 | 1544 ft | 189 kts | 54° |
| 2026-05-05 01:45 | 28.57625 | -81.27976 | 1509 ft | 209 kts | 53° |
| 2026-05-05 01:45 | 28.58561 | -81.26652 | 1509 ft | 219 kts | 54° |
| 2026-05-05 01:45 | 28.59533 | -81.25272 | 1503 ft | 226 kts | 54° |
| 2026-05-05 01:46 | 28.60523 | -81.23864 | 1505 ft | 229 kts | 54° |
| 2026-05-05 01:46 | 28.61479 | -81.22411 | 1497 ft | 229 kts | 62° |
| 2026-05-05 01:46 | 28.62148 | -81.20765 | 1498 ft | 229 kts | 70° |
| 2026-05-05 01:46 | 28.62351 | -81.18981 | 1490 ft | 229 kts | 97° |
| 2026-05-05 01:47 | 28.61844 | -81.17365 | 1951 ft | 214 kts | 118° |
| 2026-05-05 01:47 | 28.60821 | -81.15979 | 2486 ft | 237 kts | 132° |
| 2026-05-05 01:47 | 28.59657 | -81.14555 | 3044 ft | 252 kts | 130° |
| 2026-05-05 01:47 | 28.58510 | -81.13096 | 3582 ft | 257 kts | 131° |
| 2026-05-05 01:48 | 28.57299 | -81.11603 | 4118 ft | 262 kts | 133° |
| 2026-05-05 01:48 | 28.56038 | -81.10066 | 4677 ft | 270 kts | 133° |
| 2026-05-05 01:48 | 28.54754 | -81.08475 | 5342 ft | 276 kts | 133° |
| 2026-05-05 01:48 | 28.53450 | -81.06867 | 6010 ft | 277 kts | 134° |
| 2026-05-05 01:49 | 28.52132 | -81.05251 | 6671 ft | 281 kts | 134° |
| 2026-05-05 01:49 | 28.50799 | -81.03604 | 7319 ft | 285 kts | 134° |
| 2026-05-05 01:49 | 28.49448 | -81.01941 | 7975 ft | 289 kts | 134° |
| 2026-05-05 01:49 | 28.48077 | -81.00258 | 8637 ft | 292 kts | 134° |
| 2026-05-05 01:50 | 28.46691 | -80.98547 | 9322 ft | 295 kts | 134° |
| 2026-05-05 01:50 | 28.45285 | -80.96822 | 10013 ft | 300 kts | 134° |
| 2026-05-05 01:50 | 28.43862 | -80.95077 | 10643 ft | 302 kts | 134° |
| 2026-05-05 01:50 | 28.42430 | -80.93309 | 11290 ft | 305 kts | 134° |
| 2026-05-05 01:51 | 28.40986 | -80.91543 | 11943 ft | 308 kts | 134° |
| 2026-05-05 01:51 | 28.39521 | -80.89745 | 12613 ft | 310 kts | 134° |
| 2026-05-05 01:51 | 28.38049 | -80.87933 | 13303 ft | 315 kts | 134° |
| 2026-05-05 01:51 | 28.36725 | -80.86315 | 13914 ft | 319 kts | 134° |
| 2026-05-05 01:52 | 28.35207 | -80.84458 | 14536 ft | 323 kts | 134° |
| 2026-05-05 01:52 | 28.33676 | -80.82573 | 15162 ft | 326 kts | 135° |
| 2026-05-05 01:52 | 28.32129 | -80.80684 | 15806 ft | 328 kts | 135° |
| 2026-05-05 01:52 | 28.30571 | -80.78780 | 16434 ft | 330 kts | 135° |
| 2026-05-05 01:53 | 28.29006 | -80.76858 | 17104 ft | 332 kts | 136° |
| 2026-05-05 01:53 | 28.27432 | -80.74936 | 17786 ft | 333 kts | 136° |
| 2026-05-05 01:53 | 28.25847 | -80.73003 | 18397 ft | 337 kts | 137° |
| 2026-05-05 01:53 | 28.24294 | -80.71103 | 18879 ft | 341 kts | 136° |
| 2026-05-05 01:54 | 28.22651 | -80.69144 | 19380 ft | 343 kts | 141° |
| 2026-05-05 01:54 | 28.20725 | -80.67581 | 19897 ft | 339 kts | 155° |
| 2026-05-05 01:54 | 28.18583 | -80.66502 | 20423 ft | 335 kts | 168° |
| 2026-05-05 01:54 | 28.16335 | -80.65839 | 20977 ft | 335 kts | 172° |
| 2026-05-05 01:55 | 28.14070 | -80.65153 | 21527 ft | 338 kts | 171° |
| 2026-05-05 01:55 | 28.11798 | -80.64443 | 22077 ft | 339 kts | 171° |
| 2026-05-05 01:55 | 28.09508 | -80.63760 | 22639 ft | 341 kts | 172° |
| 2026-05-05 01:55 | 28.07243 | -80.63093 | 23203 ft | 342 kts | 172° |
| 2026-05-05 01:56 | 28.04937 | -80.62399 | 23757 ft | 344 kts | 172° |
| 2026-05-05 01:56 | 28.02622 | -80.61699 | 24244 ft | 344 kts | 172° |
| 2026-05-05 01:56 | 28.00304 | -80.61005 | 24738 ft | 345 kts | 172° |
| 2026-05-05 01:56 | 27.98262 | -80.60396 | 25179 ft | 346 kts | 173° |